createdAt,value
2018-09-25T00:01:02.520Z,2.70
2018-09-25T00:03:36.174Z,4.10
2018-09-25T00:06:10.014Z,2.90
2018-09-25T00:08:43.837Z,2.60
2018-09-25T00:11:17.658Z,2.90
2018-09-25T00:13:51.429Z,2.30
2018-09-25T00:16:25.149Z,2.50
2018-09-25T00:18:58.700Z,2.73
2018-09-25T00:21:32.508Z,2.27
2018-09-25T00:24:06.278Z,2.37
2018-09-25T00:26:39.977Z,2.60
2018-09-25T00:29:13.742Z,3.03
2018-09-25T00:31:47.491Z,2.20
2018-09-25T00:34:21.460Z,2.60
2018-09-25T00:36:55.251Z,2.60
2018-09-25T00:39:29.053Z,2.40
2018-09-25T00:42:02.849Z,2.37
2018-09-25T00:44:36.377Z,2.30
2018-09-25T00:47:10.180Z,2.70
2018-09-25T00:49:43.781Z,2.50
2018-09-25T00:52:17.507Z,2.23
2018-09-25T00:54:51.124Z,2.73
2018-09-25T00:57:25.044Z,2.20
2018-09-25T00:59:58.769Z,2.70
2018-09-25T01:02:33.548Z,2.53
2018-09-25T01:05:07.318Z,3.10
2018-09-25T01:07:41.158Z,2.47
2018-09-25T01:10:14.916Z,2.40
2018-09-25T01:12:48.443Z,2.23
2018-09-25T01:15:22.025Z,2.70
2018-09-25T01:17:55.819Z,2.20
2018-09-25T01:20:29.552Z,2.10
2018-09-25T01:23:03.211Z,2.27
2018-09-25T01:25:36.941Z,2.30
2018-09-25T01:28:10.729Z,2.50
2018-09-25T01:30:44.534Z,2.10
2018-09-25T01:33:18.007Z,2.23
2018-09-25T01:35:51.766Z,2.10
2018-09-25T01:38:25.452Z,2.23
2018-09-25T01:40:59.172Z,2.30
2018-09-25T01:43:32.840Z,2.20
2018-09-25T01:46:06.612Z,2.53
2018-09-25T01:48:40.169Z,2.40
2018-09-25T01:51:13.938Z,2.47
2018-09-25T01:53:47.456Z,3.30
2018-09-25T01:56:21.135Z,2.40
2018-09-25T01:58:54.936Z,2.40
2018-09-25T02:01:28.732Z,2.20
2018-09-25T02:04:02.398Z,1.93
2018-09-25T02:06:36.104Z,2.60
2018-09-25T02:09:10.477Z,2.07
2018-09-25T02:11:44.258Z,1.97
2018-09-25T02:14:17.908Z,2.00
2018-09-25T02:16:51.689Z,1.83
2018-09-25T02:19:25.369Z,2.07
2018-09-25T02:21:59.177Z,2.17
2018-09-25T02:24:32.748Z,2.30
2018-09-25T02:27:06.498Z,2.10
2018-09-25T02:29:40.148Z,2.63
2018-09-25T02:32:13.838Z,2.90
2018-09-25T02:34:47.530Z,2.93
2018-09-25T02:37:21.053Z,2.80
2018-09-25T02:39:54.789Z,2.53
2018-09-25T02:42:28.574Z,3.03
2018-09-25T02:45:03.019Z,3.10
2018-09-25T02:47:36.636Z,2.80
2018-09-25T02:50:10.368Z,2.60
2018-09-25T02:52:44.028Z,2.20
2018-09-25T02:55:18.398Z,2.40
2018-09-25T02:57:52.002Z,2.30
2018-09-25T03:00:25.632Z,2.50
2018-09-25T03:02:59.443Z,2.63
2018-09-25T03:05:33.280Z,2.30
2018-09-25T03:08:06.980Z,3.00
2018-09-25T03:10:40.744Z,2.43
2018-09-25T03:13:14.266Z,3.53
2018-09-25T03:15:48.000Z,2.90
2018-09-25T03:18:21.712Z,2.60
2018-09-25T03:20:55.440Z,2.80
2018-09-25T03:23:29.216Z,2.87
2018-09-25T03:26:02.866Z,2.60
2018-09-25T03:28:36.647Z,2.77
2018-09-25T03:31:10.884Z,2.83
2018-09-25T03:33:44.562Z,2.83
2018-09-25T03:36:18.341Z,3.00
2018-09-25T03:38:52.065Z,3.23
2018-09-25T03:41:25.713Z,3.33
2018-09-25T03:43:59.572Z,3.33
2018-09-25T03:46:33.305Z,3.20
2018-09-25T03:49:06.928Z,4.53
2018-09-25T03:51:40.654Z,3.43
2018-09-25T03:54:14.333Z,3.33
2018-09-25T03:56:48.021Z,3.03
2018-09-25T03:59:21.736Z,3.07
2018-09-25T04:01:55.276Z,3.20
2018-09-25T04:04:28.907Z,3.17
2018-09-25T04:07:02.790Z,3.30
2018-09-25T04:09:36.525Z,3.10
2018-09-25T04:12:10.258Z,3.10
2018-09-25T04:14:44.010Z,3.17
2018-09-25T04:17:17.734Z,3.03
2018-09-25T04:19:51.549Z,2.83
2018-09-25T04:22:25.316Z,3.20
2018-09-25T04:24:58.781Z,4.00
2018-09-25T04:27:32.328Z,3.23
2018-09-25T04:30:06.062Z,3.20
2018-09-25T04:32:39.837Z,3.40
2018-09-25T04:35:13.652Z,2.90
2018-09-25T04:37:47.440Z,3.17
2018-09-25T04:40:21.180Z,3.30
2018-09-25T04:42:54.965Z,3.17
2018-09-25T04:45:28.690Z,3.00
2018-09-25T04:48:02.449Z,3.10
2018-09-25T04:50:36.122Z,2.67
2018-09-25T04:53:09.798Z,3.07
2018-09-25T04:55:43.249Z,3.30
2018-09-25T04:58:16.745Z,3.50
2018-09-25T05:00:50.522Z,3.93
2018-09-25T05:03:24.176Z,3.73
2018-09-25T05:05:57.918Z,4.50
2018-09-25T05:08:31.596Z,3.40
2018-09-25T05:11:05.128Z,3.53
2018-09-25T05:13:38.932Z,4.70
2018-09-25T05:16:12.708Z,4.27
2018-09-25T05:18:46.444Z,4.87
2018-09-25T05:21:20.288Z,3.93
2018-09-25T05:23:54.062Z,5.07
2018-09-25T05:26:27.972Z,3.30
2018-09-25T05:29:01.667Z,3.90
2018-09-25T05:31:35.284Z,4.27
2018-09-25T05:34:08.970Z,3.90
2018-09-25T05:36:42.699Z,3.70
2018-09-25T05:39:16.452Z,4.07
2018-09-25T05:41:50.090Z,5.03
2018-09-25T05:44:23.968Z,3.97
2018-09-25T05:46:57.610Z,4.37
2018-09-25T05:49:31.456Z,4.20
2018-09-25T05:52:05.175Z,4.73
2018-09-25T05:54:38.955Z,4.77
2018-09-25T05:57:12.652Z,4.20
2018-09-25T05:59:46.267Z,4.67
2018-09-25T06:02:19.950Z,4.70
2018-09-25T06:04:53.655Z,4.90
2018-09-25T06:07:27.440Z,4.50
2018-09-25T06:10:01.144Z,6.33
2018-09-25T06:12:34.921Z,5.00
2018-09-25T06:15:08.652Z,4.83
2018-09-25T06:17:42.303Z,4.53
2018-09-25T06:20:16.052Z,4.10
2018-09-25T06:22:49.741Z,5.17
2018-09-25T06:25:23.279Z,5.33
2018-09-25T06:27:56.964Z,7.80
2018-09-25T06:30:30.633Z,7.30
2018-09-25T06:33:04.415Z,6.47
2018-09-25T06:35:37.980Z,4.90
2018-09-25T06:38:11.639Z,5.90
2018-09-25T06:40:45.368Z,6.03
2018-09-25T06:43:19.175Z,5.73
2018-09-25T06:45:52.867Z,6.70
2018-09-25T06:48:26.496Z,7.47
2018-09-25T06:51:00.317Z,7.53
2018-09-25T06:53:34.069Z,7.67
2018-09-25T06:56:07.798Z,8.30
2018-09-25T06:58:41.560Z,9.03
2018-09-25T07:01:15.349Z,7.77
2018-09-25T07:03:49.045Z,8.07
2018-09-25T07:06:22.870Z,8.47
2018-09-25T07:08:56.684Z,8.60
2018-09-25T07:11:30.342Z,8.60
2018-09-25T07:14:04.031Z,9.37
2018-09-25T07:16:37.823Z,9.33
2018-09-25T07:19:11.669Z,8.17
2018-09-25T07:21:45.308Z,10.40
2018-09-25T07:24:19.064Z,11.60
2018-09-25T07:26:52.805Z,10.40
2018-09-25T07:29:26.563Z,10.77
2018-09-25T07:32:00.217Z,10.90
2018-09-25T07:34:33.924Z,10.97
2018-09-25T07:37:07.731Z,10.60
2018-09-25T07:39:41.437Z,11.30
2018-09-25T07:42:15.090Z,12.30
2018-09-25T07:44:48.866Z,11.60
2018-09-25T07:47:22.555Z,11.83
2018-09-25T07:49:56.299Z,12.30
2018-09-25T07:52:30.059Z,11.00
2018-09-25T07:55:03.867Z,13.30
2018-09-25T07:57:37.577Z,12.80
2018-09-25T08:00:11.438Z,12.60
2018-09-25T08:02:45.000Z,11.80
2018-09-25T08:05:18.662Z,12.27
2018-09-25T08:07:52.435Z,12.93
2018-09-25T08:10:25.972Z,13.07
2018-09-25T08:12:59.550Z,12.30
2018-09-25T08:15:33.421Z,12.43
2018-09-25T08:18:06.949Z,13.20
2018-09-25T08:20:40.638Z,14.40
2018-09-25T08:23:14.409Z,13.27
2018-09-25T08:25:48.086Z,14.63
2018-09-25T08:28:21.736Z,14.83
2018-09-25T08:30:55.353Z,14.30
2018-09-25T08:33:29.097Z,14.53
2018-09-25T08:36:03.284Z,14.43
2018-09-25T08:38:37.099Z,14.40
2018-09-25T08:41:10.838Z,12.47
2018-09-25T08:43:44.602Z,14.10
2018-09-25T08:46:18.218Z,13.80
2018-09-25T08:48:51.903Z,15.37
2018-09-25T08:51:25.496Z,14.37
2018-09-25T08:53:59.285Z,14.90
2018-09-25T08:56:33.122Z,15.80
2018-09-25T08:59:06.919Z,15.10
2018-09-25T09:01:40.614Z,15.47
2018-09-25T09:04:14.421Z,16.10
2018-09-25T09:06:48.349Z,15.00
2018-09-25T09:09:22.110Z,13.70
2018-09-25T09:11:55.980Z,15.67
2018-09-25T09:14:29.749Z,13.33
2018-09-25T09:17:03.583Z,13.70
2018-09-25T09:19:37.376Z,13.97
2018-09-25T09:22:11.133Z,13.40
2018-09-25T09:24:44.875Z,14.30
2018-09-25T09:27:18.553Z,12.70
2018-09-25T09:29:52.075Z,11.83
2018-09-25T09:32:25.740Z,11.30
2018-09-25T09:34:59.493Z,11.67
2018-09-25T09:37:33.164Z,13.00
2018-09-25T09:40:06.980Z,10.37
2018-09-25T09:42:40.757Z,8.33
2018-09-25T09:45:14.477Z,7.60
2018-09-25T09:47:48.309Z,8.30
2018-09-25T09:50:22.163Z,6.47
2018-09-25T09:52:55.768Z,5.80
2018-09-25T09:55:29.544Z,6.00
2018-09-25T09:58:03.134Z,4.87
2018-09-25T10:00:36.730Z,5.13
2018-09-25T10:03:10.420Z,5.13
2018-09-25T10:05:44.596Z,5.00
2018-09-25T10:08:18.127Z,4.23
2018-09-25T10:10:51.616Z,11.00
2018-09-25T10:13:25.245Z,7.20
2018-09-25T10:15:59.085Z,5.40
2018-09-25T10:18:32.646Z,4.70
2018-09-25T10:21:06.520Z,3.77
2018-09-25T10:23:40.248Z,3.53
2018-09-25T10:26:14.282Z,3.07
2018-09-25T10:28:48.028Z,3.67
2018-09-25T10:31:21.525Z,3.23
2018-09-25T10:33:55.153Z,3.40
2018-09-25T10:36:28.816Z,2.93
2018-09-25T10:39:02.599Z,3.27
2018-09-25T10:41:36.265Z,3.47
2018-09-25T10:44:10.146Z,2.90
2018-09-25T10:46:43.886Z,2.67
2018-09-25T10:49:17.621Z,3.37
2018-09-25T10:51:51.253Z,3.73
2018-09-25T10:54:24.968Z,2.87
2018-09-25T10:56:58.544Z,2.83
2018-09-25T10:59:32.327Z,2.80
2018-09-25T11:02:06.210Z,3.00
2018-09-25T11:04:39.838Z,3.47
2018-09-25T11:07:13.548Z,4.53
2018-09-25T11:09:47.165Z,3.77
2018-09-25T11:12:20.943Z,3.63
2018-09-25T11:14:54.680Z,3.13
2018-09-25T11:17:28.472Z,3.00
2018-09-25T11:20:02.301Z,3.30
2018-09-25T11:22:36.024Z,2.57
2018-09-25T11:25:09.814Z,2.97
2018-09-25T11:27:43.569Z,3.17
2018-09-25T11:30:17.389Z,2.90
2018-09-25T11:32:51.137Z,2.70
2018-09-25T11:35:24.845Z,3.33
2018-09-25T11:37:58.610Z,2.90
2018-09-25T11:40:32.319Z,2.17
2018-09-25T11:43:06.109Z,2.87
2018-09-25T11:45:39.882Z,1.30
2018-09-25T11:48:13.480Z,1.50
2018-09-25T11:50:47.044Z,1.40
2018-09-25T11:53:20.723Z,1.80
2018-09-25T11:55:54.279Z,1.40
2018-09-25T11:58:28.023Z,1.63
2018-09-25T12:01:01.752Z,1.70
2018-09-25T12:03:35.423Z,1.60
2018-09-25T12:06:09.187Z,1.70
2018-09-25T12:08:42.767Z,1.97
2018-09-25T12:11:16.481Z,1.80
2018-09-25T12:13:50.510Z,1.90
2018-09-25T12:16:24.166Z,1.70
2018-09-25T12:18:57.795Z,2.00
2018-09-25T12:21:31.587Z,2.30
2018-09-25T12:24:05.420Z,2.00
2018-09-25T12:26:39.213Z,1.87
2018-09-25T12:29:12.897Z,2.10
2018-09-25T12:31:46.676Z,1.90
2018-09-25T12:34:21.080Z,2.10
2018-09-25T12:36:54.853Z,2.07
2018-09-25T12:39:28.574Z,2.53
2018-09-25T12:42:02.195Z,2.27
2018-09-25T12:44:35.941Z,2.30
2018-09-25T12:47:09.616Z,2.30
2018-09-25T12:49:43.260Z,1.93
2018-09-25T12:52:16.853Z,2.10
2018-09-25T12:54:50.519Z,2.30
2018-09-25T12:57:24.129Z,2.67
2018-09-25T12:59:57.737Z,2.63
2018-09-25T13:02:31.408Z,2.30
2018-09-25T13:05:05.024Z,2.40
2018-09-25T13:07:38.811Z,2.40
2018-09-25T13:10:12.492Z,2.33
2018-09-25T13:12:46.341Z,1.80
2018-09-25T13:15:19.967Z,2.30
2018-09-25T13:17:53.633Z,2.20
2018-09-25T13:20:27.350Z,2.17
2018-09-25T13:23:00.996Z,2.03
2018-09-25T13:25:34.488Z,1.50
2018-09-25T13:28:08.206Z,1.97
2018-09-25T13:30:41.790Z,1.87
2018-09-25T13:33:15.352Z,1.77
2018-09-25T13:35:49.067Z,1.80
2018-09-25T13:38:22.701Z,1.50
2018-09-25T13:40:56.445Z,3.00
2018-09-25T13:43:29.929Z,1.60
2018-09-25T13:46:03.645Z,1.77
2018-09-25T13:48:37.353Z,1.90
2018-09-25T13:51:10.973Z,2.13
2018-09-25T13:53:44.675Z,1.70
2018-09-25T13:56:18.153Z,2.00
2018-09-25T13:58:51.909Z,1.73
2018-09-25T14:01:25.556Z,2.07
2018-09-25T14:03:59.288Z,1.57
2018-09-25T14:06:32.977Z,1.40
2018-09-25T14:09:06.776Z,1.77
2018-09-25T14:11:40.478Z,1.93
2018-09-25T14:14:14.275Z,2.07
2018-09-25T14:16:47.788Z,1.73
2018-09-25T14:19:21.417Z,2.10
2018-09-25T14:21:55.191Z,1.90
2018-09-25T14:24:28.937Z,1.83
2018-09-25T14:27:02.567Z,2.37
2018-09-25T14:29:36.243Z,1.77
2018-09-25T14:32:09.953Z,2.20
2018-09-25T14:34:43.762Z,1.63
2018-09-25T14:37:17.422Z,1.60
2018-09-25T14:39:51.250Z,1.67
2018-09-25T14:42:25.036Z,2.27
2018-09-25T14:44:58.738Z,1.50
2018-09-25T14:47:32.450Z,1.60
2018-09-25T14:50:06.097Z,1.60
2018-09-25T14:52:39.787Z,2.13
2018-09-25T14:55:13.617Z,2.70
2018-09-25T14:57:47.283Z,2.07
2018-09-25T15:00:21.065Z,2.00
2018-09-25T15:02:54.642Z,2.07
2018-09-25T15:05:28.440Z,1.80
2018-09-25T15:08:02.108Z,1.40
2018-09-25T15:10:35.689Z,1.70
2018-09-25T15:13:09.277Z,2.00
2018-09-25T15:15:42.928Z,1.57
2018-09-25T15:18:16.559Z,2.10
2018-09-25T15:20:50.283Z,2.00
2018-09-25T15:23:24.109Z,3.00
2018-09-25T15:25:57.724Z,2.10
2018-09-25T15:28:31.470Z,2.37
2018-09-25T15:31:05.200Z,2.23
2018-09-25T15:33:38.962Z,1.70
2018-09-25T15:36:12.706Z,2.50
2018-09-25T15:38:46.489Z,2.07
2018-09-25T15:41:20.206Z,1.63
2018-09-25T15:43:53.952Z,1.70
2018-09-25T15:46:27.777Z,2.00
2018-09-25T15:49:01.288Z,1.60
2018-09-25T15:51:35.130Z,2.10
2018-09-25T15:54:08.788Z,1.40
2018-09-25T15:56:42.501Z,1.40
2018-09-25T15:59:16.285Z,1.70
2018-09-25T16:01:50.013Z,1.90
2018-09-25T16:04:23.636Z,2.50
2018-09-25T16:06:57.377Z,2.33
2018-09-25T16:09:31.151Z,2.30
2018-09-25T16:12:04.949Z,1.83
2018-09-25T16:14:38.658Z,2.03
2018-09-25T16:17:12.550Z,2.30
2018-09-25T16:19:46.179Z,2.07
2018-09-25T16:22:19.830Z,1.30
2018-09-25T16:24:53.581Z,3.10
2018-09-25T16:27:27.283Z,1.73
2018-09-25T16:30:01.013Z,1.80
2018-09-25T16:32:34.840Z,1.57
2018-09-25T16:35:08.352Z,1.50
2018-09-25T16:37:42.057Z,2.33
2018-09-25T16:40:15.841Z,2.27
2018-09-25T16:42:49.557Z,1.97
2018-09-25T16:45:23.100Z,2.03
2018-09-25T16:47:56.787Z,1.93
2018-09-25T16:50:30.602Z,1.77
2018-09-25T16:53:11.100Z,1.90
2018-09-25T16:55:44.836Z,1.80
2018-09-25T16:58:18.635Z,2.23
2018-09-25T17:00:52.398Z,2.00
2018-09-25T17:03:26.202Z,1.97
2018-09-25T17:05:59.991Z,2.40
2018-09-25T17:08:33.699Z,2.43
2018-09-25T17:11:07.320Z,2.87
2018-09-25T17:13:41.046Z,3.40
2018-09-25T17:16:14.749Z,2.23
2018-09-25T17:18:48.339Z,1.90
2018-09-25T17:21:22.137Z,1.93
2018-09-25T17:23:55.853Z,1.80
2018-09-25T17:26:29.689Z,2.20
2018-09-25T17:29:03.343Z,2.37
2018-09-25T17:31:37.046Z,1.70
2018-09-25T17:34:10.825Z,1.60
2018-09-25T17:36:44.645Z,6.30
2018-09-25T17:39:18.242Z,5.80
2018-09-25T17:41:51.901Z,3.40
2018-09-25T17:44:25.685Z,2.70
2018-09-25T17:46:59.298Z,2.33
2018-09-25T17:49:32.910Z,2.30
2018-09-25T17:52:06.489Z,1.97
2018-09-25T17:54:40.073Z,2.17
2018-09-25T17:57:13.845Z,2.17
2018-09-25T17:59:47.652Z,3.47
2018-09-25T18:02:21.254Z,3.20
2018-09-25T18:04:54.853Z,5.20
2018-09-25T18:07:28.594Z,3.03
2018-09-25T18:10:02.257Z,2.77
2018-09-25T18:12:35.945Z,3.13
2018-09-25T18:15:09.618Z,2.93
2018-09-25T18:17:43.242Z,1.80
2018-09-25T18:20:16.899Z,2.37
2018-09-25T18:22:50.546Z,2.17
2018-09-25T18:25:24.129Z,2.03
2018-09-25T18:27:57.895Z,2.73
2018-09-25T18:30:31.523Z,2.83
2018-09-25T18:33:05.151Z,2.50
2018-09-25T18:35:39.014Z,2.20
2018-09-25T18:38:12.721Z,2.00
2018-09-25T18:40:46.397Z,2.03
2018-09-25T18:43:20.136Z,2.30
2018-09-25T18:45:53.765Z,2.33
2018-09-25T18:48:27.508Z,2.50
2018-09-25T18:51:01.283Z,2.83
2018-09-25T18:53:34.876Z,2.60
2018-09-25T18:56:08.616Z,2.50
2018-09-25T18:58:42.461Z,2.77
2018-09-25T19:01:16.061Z,3.60
2018-09-25T19:03:49.917Z,3.20
2018-09-25T19:06:23.559Z,3.00
2018-09-25T19:08:57.140Z,3.37
2018-09-25T19:11:44.789Z,3.37
2018-09-25T19:14:18.587Z,5.30
2018-09-25T19:16:52.253Z,4.03
2018-09-25T19:19:25.912Z,2.90
2018-09-25T19:21:59.661Z,2.87
2018-09-25T19:24:33.303Z,2.63
2018-09-25T19:27:06.968Z,2.50
2018-09-25T19:29:40.613Z,2.63
2018-09-25T19:32:14.387Z,2.77
2018-09-25T19:34:48.046Z,2.60
2018-09-25T19:37:21.736Z,2.70
2018-09-25T19:39:55.417Z,4.30
2018-09-25T19:42:29.119Z,3.50
2018-09-25T19:45:02.786Z,2.60
2018-09-25T19:47:36.461Z,2.80
2018-09-25T19:50:10.292Z,2.70
2018-09-25T19:52:44.076Z,4.00
2018-09-25T19:55:17.790Z,3.97
2018-09-25T19:57:51.580Z,3.30
2018-09-25T20:00:25.240Z,16.90
2018-09-25T20:02:58.934Z,5.43
2018-09-25T20:05:32.708Z,3.53
2018-09-25T20:08:06.481Z,3.30
2018-09-25T20:10:40.248Z,2.50
2018-09-25T20:13:13.909Z,2.60
2018-09-25T20:15:47.745Z,2.60
2018-09-25T20:18:21.589Z,3.47
2018-09-25T20:20:55.376Z,3.27
2018-09-25T20:23:29.048Z,3.00
2018-09-25T20:26:02.825Z,3.10
2018-09-25T20:28:36.447Z,3.70
2018-09-25T20:31:10.003Z,4.13
2018-09-25T20:33:43.808Z,2.90
2018-09-25T20:36:17.617Z,3.00
2018-09-25T20:38:51.385Z,3.63
2018-09-25T20:41:25.105Z,3.70
2018-09-25T20:43:58.792Z,3.63
2018-09-25T20:46:32.493Z,3.80
2018-09-25T20:49:06.062Z,3.70
2018-09-25T20:51:39.899Z,3.87
2018-09-25T20:54:13.674Z,3.60
2018-09-25T20:56:47.465Z,3.70
2018-09-25T20:59:21.160Z,3.37
2018-09-25T21:01:54.804Z,3.77
2018-09-25T21:04:28.539Z,3.53
2018-09-25T21:07:02.241Z,3.60
2018-09-25T21:09:35.883Z,3.27
2018-09-25T21:12:09.579Z,4.20
2018-09-25T21:14:43.371Z,3.07
2018-09-25T21:17:17.065Z,3.30
2018-09-25T21:19:50.687Z,3.70
2018-09-25T21:22:24.432Z,3.43
2018-09-25T21:24:58.274Z,3.83
2018-09-25T21:27:32.135Z,3.50
2018-09-25T21:30:05.876Z,3.43
2018-09-25T21:32:39.551Z,2.87
2018-09-25T21:35:13.259Z,4.30
2018-09-25T21:37:47.100Z,3.97
2018-09-25T21:40:20.837Z,4.07
2018-09-25T21:42:54.424Z,4.20
2018-09-25T21:45:28.123Z,3.10
2018-09-25T21:48:01.892Z,4.00
2018-09-25T21:50:35.596Z,3.60
2018-09-25T21:53:09.172Z,3.67
2018-09-25T21:55:47.302Z,3.87
2018-09-25T21:58:21.013Z,3.40
2018-09-25T22:00:54.556Z,3.20
2018-09-25T22:03:28.278Z,3.20
2018-09-25T22:06:01.988Z,3.57
2018-09-25T22:08:35.684Z,2.90
2018-09-25T22:11:09.390Z,3.77
2018-09-25T22:13:43.057Z,3.83
2018-09-25T22:16:16.786Z,3.60
2018-09-25T22:18:50.273Z,3.97
2018-09-25T22:21:23.965Z,3.33
2018-09-25T22:23:57.584Z,3.10
2018-09-25T22:26:31.242Z,2.70
2018-09-25T22:29:04.910Z,2.87
2018-09-25T22:31:38.613Z,3.63
2018-09-25T22:34:12.170Z,3.63
2018-09-25T22:36:45.889Z,4.10
2018-09-25T22:39:19.588Z,3.20
2018-09-25T22:41:53.339Z,3.80
2018-09-25T22:44:27.004Z,3.60
2018-09-25T22:47:00.702Z,3.30
2018-09-25T22:49:34.319Z,3.20
2018-09-25T22:52:07.883Z,3.83
2018-09-25T22:54:41.691Z,3.50
2018-09-25T22:57:15.420Z,4.20
2018-09-25T22:59:49.112Z,3.50
2018-09-25T23:02:22.800Z,3.53
2018-09-25T23:04:56.618Z,3.10
2018-09-25T23:07:30.327Z,3.37
2018-09-25T23:10:03.990Z,3.90
2018-09-25T23:12:37.600Z,3.87
2018-09-25T23:15:11.281Z,3.20
2018-09-25T23:17:44.941Z,3.47
2018-09-25T23:20:18.685Z,3.17
2018-09-25T23:22:52.356Z,3.60
2018-09-25T23:25:26.072Z,3.20
2018-09-25T23:27:59.790Z,3.20
2018-09-25T23:30:33.481Z,3.40
2018-09-25T23:33:07.277Z,3.17
2018-09-25T23:35:40.951Z,3.20
2018-09-25T23:38:14.485Z,2.90
2018-09-25T23:41:46.795Z,2.90
2018-09-25T23:44:54.720Z,3.03
2018-09-25T23:47:28.402Z,2.97
2018-09-25T23:50:02.221Z,3.67
2018-09-25T23:52:36.014Z,2.97
2018-09-25T23:55:24.373Z,3.33
2018-09-25T23:58:04.732Z,2.60
